sensor_id;sensor_type;location;lat;lon;timestamp;temperature;humidity
54429;DHT22;40337;52.978;6.310;2023-06-26T00:01:26;22.20;99.30
54429;DHT22;40337;52.978;6.310;2023-06-26T00:03:55;22.20;99.70
54429;DHT22;40337;52.978;6.310;2023-06-26T00:06:20;22.10;99.50
54429;DHT22;40337;52.978;6.310;2023-06-26T00:08:46;22.10;99.60
54429;DHT22;40337;52.978;6.310;2023-06-26T00:11:11;22.10;99.60
54429;DHT22;40337;52.978;6.310;2023-06-26T00:13:37;22.10;99.70
54429;DHT22;40337;52.978;6.310;2023-06-26T00:16:02;22.10;99.80
54429;DHT22;40337;52.978;6.310;2023-06-26T00:18:29;22.10;99.90
54429;DHT22;40337;52.978;6.310;2023-06-26T00:20:54;22.10;99.80
54429;DHT22;40337;52.978;6.310;2023-06-26T00:23:20;22.20;99.90
54429;DHT22;40337;52.978;6.310;2023-06-26T00:25:45;22.10;99.90
54429;DHT22;40337;52.978;6.310;2023-06-26T00:28:11;22.10;99.90
54429;DHT22;40337;52.978;6.310;2023-06-26T00:30:37;22.10;99.90
54429;DHT22;40337;52.978;6.310;2023-06-26T00:33:02;22.10;99.90
54429;DHT22;40337;52.978;6.310;2023-06-26T00:35:28;22.10;99.90
54429;DHT22;40337;52.978;6.310;2023-06-26T00:37:53;22.10;99.90
54429;DHT22;40337;52.978;6.310;2023-06-26T00:40:19;22.10;99.90
54429;DHT22;40337;52.978;6.310;2023-06-26T00:42:44;22.10;99.90
54429;DHT22;40337;52.978;6.310;2023-06-26T00:45:10;22.10;99.90
54429;DHT22;40337;52.978;6.310;2023-06-26T00:47:36;22.10;99.90
54429;DHT22;40337;52.978;6.310;2023-06-26T00:50:02;22.10;99.90
54429;DHT22;40337;52.978;6.310;2023-06-26T00:52:28;22.10;99.90
54429;DHT22;40337;52.978;6.310;2023-06-26T00:54:54;22.10;99.90
54429;DHT22;40337;52.978;6.310;2023-06-26T00:57:20;22.10;99.90
54429;DHT22;40337;52.978;6.310;2023-06-26T00:59:46;22.10;99.90
54429;DHT22;40337;52.978;6.310;2023-06-26T01:02:11;22.10;99.90
54429;DHT22;40337;52.978;6.310;2023-06-26T01:04:37;22.10;99.90
54429;DHT22;40337;52.978;6.310;2023-06-26T01:07:03;22.10;99.90
54429;DHT22;40337;52.978;6.310;2023-06-26T01:09:30;22.10;99.90
54429;DHT22;40337;52.978;6.310;2023-06-26T01:11:56;22.00;99.80
54429;DHT22;40337;52.978;6.310;2023-06-26T01:14:21;22.00;99.90
54429;DHT22;40337;52.978;6.310;2023-06-26T01:16:49;22.00;99.90
54429;DHT22;40337;52.978;6.310;2023-06-26T01:19:24;22.00;99.90
54429;DHT22;40337;52.978;6.310;2023-06-26T01:21:58;21.90;99.90
54429;DHT22;40337;52.978;6.310;2023-06-26T01:24:31;21.90;99.90
54429;DHT22;40337;52.978;6.310;2023-06-26T01:26:59;21.80;99.90
54429;DHT22;40337;52.978;6.310;2023-06-26T01:29:26;21.80;99.90
54429;DHT22;40337;52.978;6.310;2023-06-26T01:31:54;21.80;99.90
54429;DHT22;40337;52.978;6.310;2023-06-26T01:34:20;21.80;99.90
54429;DHT22;40337;52.978;6.310;2023-06-26T01:36:45;21.70;99.90
54429;DHT22;40337;52.978;6.310;2023-06-26T01:39:15;21.70;99.90
54429;DHT22;40337;52.978;6.310;2023-06-26T01:41:41;21.70;99.90
54429;DHT22;40337;52.978;6.310;2023-06-26T01:46:58;21.70;99.90
54429;DHT22;40337;52.978;6.310;2023-06-26T01:49:37;21.70;99.90
54429;DHT22;40337;52.978;6.310;2023-06-26T01:52:21;21.70;99.90
54429;DHT22;40337;52.978;6.310;2023-06-26T01:54:57;21.70;99.90
54429;DHT22;40337;52.978;6.310;2023-06-26T01:57:26;21.70;99.90
54429;DHT22;40337;52.978;6.310;2023-06-26T01:59:54;21.70;99.90
54429;DHT22;40337;52.978;6.310;2023-06-26T02:02:20;21.60;99.90
54429;DHT22;40337;52.978;6.310;2023-06-26T02:04:47;21.70;99.90
54429;DHT22;40337;52.978;6.310;2023-06-26T02:07:13;21.60;99.90
54429;DHT22;40337;52.978;6.310;2023-06-26T02:09:39;21.60;99.90
54429;DHT22;40337;52.978;6.310;2023-06-26T02:12:05;21.60;99.90
54429;DHT22;40337;52.978;6.310;2023-06-26T02:14:31;21.60;99.90
54429;DHT22;40337;52.978;6.310;2023-06-26T02:16:56;21.70;99.90
54429;DHT22;40337;52.978;6.310;2023-06-26T02:19:22;21.70;99.90
54429;DHT22;40337;52.978;6.310;2023-06-26T02:21:48;21.80;99.90
54429;DHT22;40337;52.978;6.310;2023-06-26T02:24:14;21.80;99.90
54429;DHT22;40337;52.978;6.310;2023-06-26T02:26:40;21.80;99.90
54429;DHT22;40337;52.978;6.310;2023-06-26T02:29:06;21.80;99.90
54429;DHT22;40337;52.978;6.310;2023-06-26T02:31:31;21.80;99.90
54429;DHT22;40337;52.978;6.310;2023-06-26T02:33:57;21.80;99.90
54429;DHT22;40337;52.978;6.310;2023-06-26T02:36:23;21.90;99.90
54429;DHT22;40337;52.978;6.310;2023-06-26T02:38:48;21.80;99.90
54429;DHT22;40337;52.978;6.310;2023-06-26T02:41:14;21.80;99.90
54429;DHT22;40337;52.978;6.310;2023-06-26T02:43:39;21.80;99.90
54429;DHT22;40337;52.978;6.310;2023-06-26T02:46:05;21.80;99.90
54429;DHT22;40337;52.978;6.310;2023-06-26T02:48:30;21.80;99.90
54429;DHT22;40337;52.978;6.310;2023-06-26T02:50:56;21.80;99.90
54429;DHT22;40337;52.978;6.310;2023-06-26T02:53:21;21.80;99.90
54429;DHT22;40337;52.978;6.310;2023-06-26T02:55:47;21.70;99.90
54429;DHT22;40337;52.978;6.310;2023-06-26T02:58:13;21.70;99.90
54429;DHT22;40337;52.978;6.310;2023-06-26T03:00:38;21.60;99.90
54429;DHT22;40337;52.978;6.310;2023-06-26T03:03:07;21.50;99.90
54429;DHT22;40337;52.978;6.310;2023-06-26T03:05:33;21.40;99.90
54429;DHT22;40337;52.978;6.310;2023-06-26T03:07:58;21.40;99.90
54429;DHT22;40337;52.978;6.310;2023-06-26T03:10:24;21.30;99.90
54429;DHT22;40337;52.978;6.310;2023-06-26T03:12:49;21.30;99.90
54429;DHT22;40337;52.978;6.310;2023-06-26T03:15:15;21.30;99.90
54429;DHT22;40337;52.978;6.310;2023-06-26T03:17:40;21.30;99.90
54429;DHT22;40337;52.978;6.310;2023-06-26T03:20:06;21.40;99.90
54429;DHT22;40337;52.978;6.310;2023-06-26T03:22:33;21.40;99.90
54429;DHT22;40337;52.978;6.310;2023-06-26T03:24:59;21.40;99.90
54429;DHT22;40337;52.978;6.310;2023-06-26T03:27:24;21.50;99.90
54429;DHT22;40337;52.978;6.310;2023-06-26T03:29:52;21.50;99.90
54429;DHT22;40337;52.978;6.310;2023-06-26T03:32:18;21.40;99.90
54429;DHT22;40337;52.978;6.310;2023-06-26T03:34:43;21.50;99.90
54429;DHT22;40337;52.978;6.310;2023-06-26T03:37:09;21.50;99.90
54429;DHT22;40337;52.978;6.310;2023-06-26T03:39:34;21.50;99.90
54429;DHT22;40337;52.978;6.310;2023-06-26T03:42:00;21.50;99.90
54429;DHT22;40337;52.978;6.310;2023-06-26T03:44:27;21.40;99.90
54429;DHT22;40337;52.978;6.310;2023-06-26T03:46:52;21.50;99.90
54429;DHT22;40337;52.978;6.310;2023-06-26T03:49:18;21.50;99.90
54429;DHT22;40337;52.978;6.310;2023-06-26T03:51:44;21.40;99.90
54429;DHT22;40337;52.978;6.310;2023-06-26T03:54:10;21.40;99.90
54429;DHT22;40337;52.978;6.310;2023-06-26T03:56:36;21.40;99.90
54429;DHT22;40337;52.978;6.310;2023-06-26T03:59:01;21.30;99.90
54429;DHT22;40337;52.978;6.310;2023-06-26T04:01:27;21.30;99.90
54429;DHT22;40337;52.978;6.310;2023-06-26T04:03:53;21.30;99.90
54429;DHT22;40337;52.978;6.310;2023-06-26T04:06:19;21.20;99.90
54429;DHT22;40337;52.978;6.310;2023-06-26T04:08:44;21.30;99.90
54429;DHT22;40337;52.978;6.310;2023-06-26T04:11:10;21.30;99.90
54429;DHT22;40337;52.978;6.310;2023-06-26T04:13:35;21.30;99.90
54429;DHT22;40337;52.978;6.310;2023-06-26T04:16:01;21.40;99.90
54429;DHT22;40337;52.978;6.310;2023-06-26T04:18:27;21.40;99.90
54429;DHT22;40337;52.978;6.310;2023-06-26T04:23:32;21.50;99.90
54429;DHT22;40337;52.978;6.310;2023-06-26T04:25:58;21.50;99.90
54429;DHT22;40337;52.978;6.310;2023-06-26T04:28:24;21.60;99.90
54429;DHT22;40337;52.978;6.310;2023-06-26T04:30:50;21.50;99.90
54429;DHT22;40337;52.978;6.310;2023-06-26T04:33:15;21.50;99.90
54429;DHT22;40337;52.978;6.310;2023-06-26T04:35:41;21.40;99.90
54429;DHT22;40337;52.978;6.310;2023-06-26T04:38:10;21.40;99.90
54429;DHT22;40337;52.978;6.310;2023-06-26T04:40:36;21.40;99.90
54429;DHT22;40337;52.978;6.310;2023-06-26T04:43:01;21.40;99.90
54429;DHT22;40337;52.978;6.310;2023-06-26T04:45:27;21.30;99.90
54429;DHT22;40337;52.978;6.310;2023-06-26T04:47:52;21.30;99.90
54429;DHT22;40337;52.978;6.310;2023-06-26T04:50:18;21.30;99.90
54429;DHT22;40337;52.978;6.310;2023-06-26T04:52:44;21.20;99.90
54429;DHT22;40337;52.978;6.310;2023-06-26T04:55:09;21.20;99.90
54429;DHT22;40337;52.978;6.310;2023-06-26T04:57:35;21.20;99.90
54429;DHT22;40337;52.978;6.310;2023-06-26T05:00:01;21.20;99.90
54429;DHT22;40337;52.978;6.310;2023-06-26T05:02:27;21.20;99.90
54429;DHT22;40337;52.978;6.310;2023-06-26T05:04:53;21.20;99.90
54429;DHT22;40337;52.978;6.310;2023-06-26T05:07:18;21.20;99.90
54429;DHT22;40337;52.978;6.310;2023-06-26T05:09:44;21.20;99.90
54429;DHT22;40337;52.978;6.310;2023-06-26T05:12:09;21.20;99.90
54429;DHT22;40337;52.978;6.310;2023-06-26T05:14:35;21.20;99.90
54429;DHT22;40337;52.978;6.310;2023-06-26T05:17:00;21.10;99.90
54429;DHT22;40337;52.978;6.310;2023-06-26T05:19:26;21.10;99.90
54429;DHT22;40337;52.978;6.310;2023-06-26T05:21:52;21.10;99.90
54429;DHT22;40337;52.978;6.310;2023-06-26T05:24:19;21.00;99.90
54429;DHT22;40337;52.978;6.310;2023-06-26T05:26:45;21.00;99.90
54429;DHT22;40337;52.978;6.310;2023-06-26T05:29:11;20.90;99.90
54429;DHT22;40337;52.978;6.310;2023-06-26T05:31:40;21.00;99.90
54429;DHT22;40337;52.978;6.310;2023-06-26T05:34:07;21.00;99.90
54429;DHT22;40337;52.978;6.310;2023-06-26T05:36:35;21.00;99.90
54429;DHT22;40337;52.978;6.310;2023-06-26T05:39:02;21.00;99.90
54429;DHT22;40337;52.978;6.310;2023-06-26T05:41:28;21.00;99.90
54429;DHT22;40337;52.978;6.310;2023-06-26T05:43:53;20.90;99.90
54429;DHT22;40337;52.978;6.310;2023-06-26T05:46:20;20.90;99.90
54429;DHT22;40337;52.978;6.310;2023-06-26T05:48:45;20.80;99.90
54429;DHT22;40337;52.978;6.310;2023-06-26T05:51:11;20.80;99.90
54429;DHT22;40337;52.978;6.310;2023-06-26T05:53:37;20.70;99.90
54429;DHT22;40337;52.978;6.310;2023-06-26T05:56:03;20.70;99.90
54429;DHT22;40337;52.978;6.310;2023-06-26T05:58:28;20.70;99.90
54429;DHT22;40337;52.978;6.310;2023-06-26T06:00:55;20.60;99.90
54429;DHT22;40337;52.978;6.310;2023-06-26T06:03:21;20.60;99.90
54429;DHT22;40337;52.978;6.310;2023-06-26T06:05:46;20.60;99.90
54429;DHT22;40337;52.978;6.310;2023-06-26T06:08:12;20.80;99.90
54429;DHT22;40337;52.978;6.310;2023-06-26T06:10:38;21.00;99.90
54429;DHT22;40337;52.978;6.310;2023-06-26T06:13:03;21.20;99.90
54429;DHT22;40337;52.978;6.310;2023-06-26T06:15:29;21.20;99.90
54429;DHT22;40337;52.978;6.310;2023-06-26T06:17:54;21.20;99.90
54429;DHT22;40337;52.978;6.310;2023-06-26T06:20:20;21.30;99.90
54429;DHT22;40337;52.978;6.310;2023-06-26T06:22:45;21.70;99.90
54429;DHT22;40337;52.978;6.310;2023-06-26T06:25:11;21.90;99.90
54429;DHT22;40337;52.978;6.310;2023-06-26T06:27:37;22.10;99.90
54429;DHT22;40337;52.978;6.310;2023-06-26T06:30:02;22.20;99.90
54429;DHT22;40337;52.978;6.310;2023-06-26T06:32:28;22.40;99.90
54429;DHT22;40337;52.978;6.310;2023-06-26T06:34:54;22.40;99.90
54429;DHT22;40337;52.978;6.310;2023-06-26T06:37:19;22.50;99.90
54429;DHT22;40337;52.978;6.310;2023-06-26T06:39:45;22.70;99.90
54429;DHT22;40337;52.978;6.310;2023-06-26T06:42:10;22.70;99.90
54429;DHT22;40337;52.978;6.310;2023-06-26T06:44:36;22.90;99.90
54429;DHT22;40337;52.978;6.310;2023-06-26T06:47:01;22.90;99.90
54429;DHT22;40337;52.978;6.310;2023-06-26T06:49:27;22.80;99.90
54429;DHT22;40337;52.978;6.310;2023-06-26T06:51:52;22.80;99.90
54429;DHT22;40337;52.978;6.310;2023-06-26T06:54:18;23.00;99.90
54429;DHT22;40337;52.978;6.310;2023-06-26T06:56:44;23.10;99.90
54429;DHT22;40337;52.978;6.310;2023-06-26T06:59:09;23.20;99.20
54429;DHT22;40337;52.978;6.310;2023-06-26T07:01:35;23.40;98.90
54429;DHT22;40337;52.978;6.310;2023-06-26T07:04:00;23.60;98.80
54429;DHT22;40337;52.978;6.310;2023-06-26T07:06:26;23.90;98.60
54429;DHT22;40337;52.978;6.310;2023-06-26T07:08:51;24.00;97.90
54429;DHT22;40337;52.978;6.310;2023-06-26T07:11:17;24.10;97.40
54429;DHT22;40337;52.978;6.310;2023-06-26T07:13:42;24.20;97.10
54429;DHT22;40337;52.978;6.310;2023-06-26T07:16:08;24.20;96.60
54429;DHT22;40337;52.978;6.310;2023-06-26T07:18:37;24.20;96.20
54429;DHT22;40337;52.978;6.310;2023-06-26T07:21:03;24.20;96.10
54429;DHT22;40337;52.978;6.310;2023-06-26T07:23:28;24.30;96.40
54429;DHT22;40337;52.978;6.310;2023-06-26T07:25:54;24.30;96.10
54429;DHT22;40337;52.978;6.310;2023-06-26T07:28:19;24.30;95.70
54429;DHT22;40337;52.978;6.310;2023-06-26T07:30:45;24.30;95.60
54429;DHT22;40337;52.978;6.310;2023-06-26T07:33:10;24.30;95.50
54429;DHT22;40337;52.978;6.310;2023-06-26T07:35:36;24.40;95.50
54429;DHT22;40337;52.978;6.310;2023-06-26T07:38:01;24.70;95.80
54429;DHT22;40337;52.978;6.310;2023-06-26T07:40:27;24.70;95.10
54429;DHT22;40337;52.978;6.310;2023-06-26T07:42:53;24.80;94.60
54429;DHT22;40337;52.978;6.310;2023-06-26T07:45:19;25.00;94.50
54429;DHT22;40337;52.978;6.310;2023-06-26T07:47:45;25.00;94.30
54429;DHT22;40337;52.978;6.310;2023-06-26T07:50:11;24.90;94.30
54429;DHT22;40337;52.978;6.310;2023-06-26T07:52:37;25.00;95.00
54429;DHT22;40337;52.978;6.310;2023-06-26T07:55:03;24.70;95.20
54429;DHT22;40337;52.978;6.310;2023-06-26T07:57:29;24.40;95.30
54429;DHT22;40337;52.978;6.310;2023-06-26T07:59:55;24.40;95.40
54429;DHT22;40337;52.978;6.310;2023-06-26T08:02:21;24.10;95.60
54429;DHT22;40337;52.978;6.310;2023-06-26T08:04:46;24.40;95.70
54429;DHT22;40337;52.978;6.310;2023-06-26T08:07:12;24.50;95.70
54429;DHT22;40337;52.978;6.310;2023-06-26T08:09:39;24.60;95.70
54429;DHT22;40337;52.978;6.310;2023-06-26T08:12:05;24.70;95.60
54429;DHT22;40337;52.978;6.310;2023-06-26T08:14:31;24.70;95.00
54429;DHT22;40337;52.978;6.310;2023-06-26T08:16:57;24.50;95.20
54429;DHT22;40337;52.978;6.310;2023-06-26T08:19:22;24.80;95.20
54429;DHT22;40337;52.978;6.310;2023-06-26T08:21:48;24.60;95.10
54429;DHT22;40337;52.978;6.310;2023-06-26T08:24:14;24.80;95.00
54429;DHT22;40337;52.978;6.310;2023-06-26T08:26:42;24.70;95.00
54429;DHT22;40337;52.978;6.310;2023-06-26T08:29:07;24.90;94.90
54429;DHT22;40337;52.978;6.310;2023-06-26T08:31:37;24.60;94.80
54429;DHT22;40337;52.978;6.310;2023-06-26T08:34:04;24.90;94.90
54429;DHT22;40337;52.978;6.310;2023-06-26T08:36:30;25.00;95.20
54429;DHT22;40337;52.978;6.310;2023-06-26T08:38:56;24.90;94.90
54429;DHT22;40337;52.978;6.310;2023-06-26T08:41:22;25.00;95.20
54429;DHT22;40337;52.978;6.310;2023-06-26T08:43:48;25.10;94.80
54429;DHT22;40337;52.978;6.310;2023-06-26T08:46:15;25.20;94.60
54429;DHT22;40337;52.978;6.310;2023-06-26T08:48:45;25.10;93.80
54429;DHT22;40337;52.978;6.310;2023-06-26T08:51:13;25.20;93.70
54429;DHT22;40337;52.978;6.310;2023-06-26T08:54:00;25.30;93.60
54429;DHT22;40337;52.978;6.310;2023-06-26T08:56:32;25.20;93.80
54429;DHT22;40337;52.978;6.310;2023-06-26T08:59:00;25.10;93.70
54429;DHT22;40337;52.978;6.310;2023-06-26T09:01:27;25.10;93.50
54429;DHT22;40337;52.978;6.310;2023-06-26T09:03:53;25.00;93.50
54429;DHT22;40337;52.978;6.310;2023-06-26T09:06:18;25.20;93.80
54429;DHT22;40337;52.978;6.310;2023-06-26T09:08:44;25.20;93.70
54429;DHT22;40337;52.978;6.310;2023-06-26T09:11:10;25.60;93.60
54429;DHT22;40337;52.978;6.310;2023-06-26T09:13:36;25.80;93.30
54429;DHT22;40337;52.978;6.310;2023-06-26T09:16:09;25.80;93.40
54429;DHT22;40337;52.978;6.310;2023-06-26T09:18:34;26.00;93.00
54429;DHT22;40337;52.978;6.310;2023-06-26T09:21:05;25.60;92.70
54429;DHT22;40337;52.978;6.310;2023-06-26T09:23:31;25.20;93.00
54429;DHT22;40337;52.978;6.310;2023-06-26T09:25:57;24.90;93.60
54429;DHT22;40337;52.978;6.310;2023-06-26T09:28:23;24.80;94.00
54429;DHT22;40337;52.978;6.310;2023-06-26T09:30:48;24.80;94.20
54429;DHT22;40337;52.978;6.310;2023-06-26T09:33:17;25.10;93.90
54429;DHT22;40337;52.978;6.310;2023-06-26T09:35:43;25.40;93.70
54429;DHT22;40337;52.978;6.310;2023-06-26T09:38:09;25.90;92.80
54429;DHT22;40337;52.978;6.310;2023-06-26T09:40:35;26.40;92.60
54429;DHT22;40337;52.978;6.310;2023-06-26T09:43:04;26.80;92.50
54429;DHT22;40337;52.978;6.310;2023-06-26T09:45:34;27.10;92.10
54429;DHT22;40337;52.978;6.310;2023-06-26T09:48:04;26.90;91.70
54429;DHT22;40337;52.978;6.310;2023-06-26T09:50:32;26.60;92.10
54429;DHT22;40337;52.978;6.310;2023-06-26T09:53:08;25.90;91.70
54429;DHT22;40337;52.978;6.310;2023-06-26T09:55:35;25.50;92.30
54429;DHT22;40337;52.978;6.310;2023-06-26T09:58:02;25.60;92.60
54429;DHT22;40337;52.978;6.310;2023-06-26T10:00:29;25.80;92.40
54429;DHT22;40337;52.978;6.310;2023-06-26T10:02:55;25.80;91.30
54429;DHT22;40337;52.978;6.310;2023-06-26T10:05:20;25.80;91.30
54429;DHT22;40337;52.978;6.310;2023-06-26T10:07:46;26.20;91.10
54429;DHT22;40337;52.978;6.310;2023-06-26T10:10:13;26.60;90.70
54429;DHT22;40337;52.978;6.310;2023-06-26T10:12:39;26.90;90.50
54429;DHT22;40337;52.978;6.310;2023-06-26T10:15:06;26.80;90.60
54429;DHT22;40337;52.978;6.310;2023-06-26T10:17:39;27.10;90.50
54429;DHT22;40337;52.978;6.310;2023-06-26T10:20:08;27.40;90.10
54429;DHT22;40337;52.978;6.310;2023-06-26T10:22:44;27.50;89.20
54429;DHT22;40337;52.978;6.310;2023-06-26T10:25:11;27.40;87.40
54429;DHT22;40337;52.978;6.310;2023-06-26T10:27:44;27.50;87.50
54429;DHT22;40337;52.978;6.310;2023-06-26T10:30:14;26.90;86.90
54429;DHT22;40337;52.978;6.310;2023-06-26T10:32:41;26.70;88.40
54429;DHT22;40337;52.978;6.310;2023-06-26T10:35:07;26.10;89.10
54429;DHT22;40337;52.978;6.310;2023-06-26T10:37:42;26.20;90.30
54429;DHT22;40337;52.978;6.310;2023-06-26T10:40:11;26.60;90.10
54429;DHT22;40337;52.978;6.310;2023-06-26T10:42:38;26.50;89.70
54429;DHT22;40337;52.978;6.310;2023-06-26T10:45:14;26.40;89.70
54429;DHT22;40337;52.978;6.310;2023-06-26T10:47:41;25.80;88.00
54429;DHT22;40337;52.978;6.310;2023-06-26T10:50:26;25.30;88.70
54429;DHT22;40337;52.978;6.310;2023-06-26T10:56:00;25.50;90.70
54429;DHT22;40337;52.978;6.310;2023-06-26T11:03:37;26.80;90.40
54429;DHT22;40337;52.978;6.310;2023-06-26T11:08:53;27.30;89.90
54429;DHT22;40337;52.978;6.310;2023-06-26T11:11:19;27.70;87.30
54429;DHT22;40337;52.978;6.310;2023-06-26T11:13:46;27.40;85.70
54429;DHT22;40337;52.978;6.310;2023-06-26T11:16:13;27.50;85.40
54429;DHT22;40337;52.978;6.310;2023-06-26T11:18:40;26.90;86.80
54429;DHT22;40337;52.978;6.310;2023-06-26T11:21:10;26.30;86.90
54429;DHT22;40337;52.978;6.310;2023-06-26T11:23:39;26.30;88.10
54429;DHT22;40337;52.978;6.310;2023-06-26T11:26:19;26.70;89.10
54429;DHT22;40337;52.978;6.310;2023-06-26T11:28:55;27.00;85.80
54429;DHT22;40337;52.978;6.310;2023-06-26T11:31:27;27.20;85.30
54429;DHT22;40337;52.978;6.310;2023-06-26T11:33:56;27.30;84.40
54429;DHT22;40337;52.978;6.310;2023-06-26T11:36:26;27.10;84.40
54429;DHT22;40337;52.978;6.310;2023-06-26T11:39:03;27.30;83.70
54429;DHT22;40337;52.978;6.310;2023-06-26T11:41:30;27.70;85.20
54429;DHT22;40337;52.978;6.310;2023-06-26T11:43:59;27.50;83.60
54429;DHT22;40337;52.978;6.310;2023-06-26T11:46:25;27.60;84.10
54429;DHT22;40337;52.978;6.310;2023-06-26T11:48:51;27.10;82.80
54429;DHT22;40337;52.978;6.310;2023-06-26T11:51:17;26.70;82.70
54429;DHT22;40337;52.978;6.310;2023-06-26T11:53:44;26.20;83.10
54429;DHT22;40337;52.978;6.310;2023-06-26T11:56:11;26.20;83.10
54429;DHT22;40337;52.978;6.310;2023-06-26T11:58:54;26.40;83.30
54429;DHT22;40337;52.978;6.310;2023-06-26T12:01:20;26.50;82.30
54429;DHT22;40337;52.978;6.310;2023-06-26T12:03:46;26.60;81.50
54429;DHT22;40337;52.978;6.310;2023-06-26T12:06:12;26.40;82.10
54429;DHT22;40337;52.978;6.310;2023-06-26T12:08:38;26.30;81.90
54429;DHT22;40337;52.978;6.310;2023-06-26T12:11:03;26.10;81.40
54429;DHT22;40337;52.978;6.310;2023-06-26T12:13:30;26.00;81.30
54429;DHT22;40337;52.978;6.310;2023-06-26T12:15:57;25.80;81.30
54429;DHT22;40337;52.978;6.310;2023-06-26T12:18:23;25.70;81.70
54429;DHT22;40337;52.978;6.310;2023-06-26T12:20:51;25.60;82.00
54429;DHT22;40337;52.978;6.310;2023-06-26T12:23:17;25.80;83.20
54429;DHT22;40337;52.978;6.310;2023-06-26T12:25:43;26.00;82.80
54429;DHT22;40337;52.978;6.310;2023-06-26T12:28:17;26.00;81.90
54429;DHT22;40337;52.978;6.310;2023-06-26T12:30:46;26.10;82.50
54429;DHT22;40337;52.978;6.310;2023-06-26T12:33:15;26.20;82.90
54429;DHT22;40337;52.978;6.310;2023-06-26T12:35:41;26.00;82.20
54429;DHT22;40337;52.978;6.310;2023-06-26T12:38:08;26.00;82.70
54429;DHT22;40337;52.978;6.310;2023-06-26T12:40:45;26.20;83.50
54429;DHT22;40337;52.978;6.310;2023-06-26T12:43:22;26.20;82.10
54429;DHT22;40337;52.978;6.310;2023-06-26T12:45:47;26.20;83.20
54429;DHT22;40337;52.978;6.310;2023-06-26T12:48:13;26.10;83.20
54429;DHT22;40337;52.978;6.310;2023-06-26T12:50:43;26.10;82.90
54429;DHT22;40337;52.978;6.310;2023-06-26T12:53:10;25.70;82.90
54429;DHT22;40337;52.978;6.310;2023-06-26T12:55:36;25.30;83.00
54429;DHT22;40337;52.978;6.310;2023-06-26T12:58:02;24.90;83.60
54429;DHT22;40337;52.978;6.310;2023-06-26T13:00:27;24.90;83.60
54429;DHT22;40337;52.978;6.310;2023-06-26T13:02:53;24.80;84.70
54429;DHT22;40337;52.978;6.310;2023-06-26T13:05:18;24.80;84.10
54429;DHT22;40337;52.978;6.310;2023-06-26T13:07:44;24.80;84.40
54429;DHT22;40337;52.978;6.310;2023-06-26T13:10:10;24.80;84.20
54429;DHT22;40337;52.978;6.310;2023-06-26T13:12:35;25.10;85.30
54429;DHT22;40337;52.978;6.310;2023-06-26T13:15:01;25.30;86.00
54429;DHT22;40337;52.978;6.310;2023-06-26T13:17:26;25.30;85.90
54429;DHT22;40337;52.978;6.310;2023-06-26T13:19:52;25.30;86.00
54429;DHT22;40337;52.978;6.310;2023-06-26T13:22:17;24.90;85.50
54429;DHT22;40337;52.978;6.310;2023-06-26T13:24:43;24.60;85.50
54429;DHT22;40337;52.978;6.310;2023-06-26T13:27:09;24.70;87.20
54429;DHT22;40337;52.978;6.310;2023-06-26T13:29:34;24.40;86.40
54429;DHT22;40337;52.978;6.310;2023-06-26T13:32:00;24.50;85.90
54429;DHT22;40337;52.978;6.310;2023-06-26T13:34:27;24.50;86.20
54429;DHT22;40337;52.978;6.310;2023-06-26T13:36:53;24.40;86.50
54429;DHT22;40337;52.978;6.310;2023-06-26T13:39:19;24.20;86.70
54429;DHT22;40337;52.978;6.310;2023-06-26T13:41:45;24.50;87.60
54429;DHT22;40337;52.978;6.310;2023-06-26T13:44:11;24.50;85.90
54429;DHT22;40337;52.978;6.310;2023-06-26T13:46:37;24.80;85.00
54429;DHT22;40337;52.978;6.310;2023-06-26T13:49:02;24.80;85.50
54429;DHT22;40337;52.978;6.310;2023-06-26T13:51:28;24.80;85.10
54429;DHT22;40337;52.978;6.310;2023-06-26T13:53:53;24.80;84.20
54429;DHT22;40337;52.978;6.310;2023-06-26T13:56:20;25.00;84.70
54429;DHT22;40337;52.978;6.310;2023-06-26T13:58:48;25.20;85.30
54429;DHT22;40337;52.978;6.310;2023-06-26T14:01:13;24.70;83.20
54429;DHT22;40337;52.978;6.310;2023-06-26T14:03:39;24.50;83.50
54429;DHT22;40337;52.978;6.310;2023-06-26T14:06:04;24.30;84.20
54429;DHT22;40337;52.978;6.310;2023-06-26T14:08:30;24.50;86.10
54429;DHT22;40337;52.978;6.310;2023-06-26T14:10:55;24.30;85.30
54429;DHT22;40337;52.978;6.310;2023-06-26T14:13:21;24.50;86.00
54429;DHT22;40337;52.978;6.310;2023-06-26T14:15:47;24.50;86.70
54429;DHT22;40337;52.978;6.310;2023-06-26T14:18:12;24.90;86.80
54429;DHT22;40337;52.978;6.310;2023-06-26T14:20:38;25.00;85.30
54429;DHT22;40337;52.978;6.310;2023-06-26T14:23:03;25.30;85.70
54429;DHT22;40337;52.978;6.310;2023-06-26T14:25:29;25.20;85.50
54429;DHT22;40337;52.978;6.310;2023-06-26T14:27:56;24.80;84.30
54429;DHT22;40337;52.978;6.310;2023-06-26T14:30:22;24.60;84.80
54429;DHT22;40337;52.978;6.310;2023-06-26T14:32:47;24.50;85.10
54429;DHT22;40337;52.978;6.310;2023-06-26T14:35:13;24.70;85.00
54429;DHT22;40337;52.978;6.310;2023-06-26T14:37:38;24.90;84.70
54429;DHT22;40337;52.978;6.310;2023-06-26T14:40:06;24.30;84.00
54429;DHT22;40337;52.978;6.310;2023-06-26T14:42:32;24.10;85.50
54429;DHT22;40337;52.978;6.310;2023-06-26T14:44:59;24.10;85.30
54429;DHT22;40337;52.978;6.310;2023-06-26T14:47:24;23.80;85.80
54429;DHT22;40337;52.978;6.310;2023-06-26T14:49:50;23.40;86.60
54429;DHT22;40337;52.978;6.310;2023-06-26T14:52:15;23.10;86.30
54429;DHT22;40337;52.978;6.310;2023-06-26T14:54:41;23.20;86.40
54429;DHT22;40337;52.978;6.310;2023-06-26T14:57:07;23.40;86.50
54429;DHT22;40337;52.978;6.310;2023-06-26T14:59:33;23.40;86.70
54429;DHT22;40337;52.978;6.310;2023-06-26T15:01:58;23.40;87.50
54429;DHT22;40337;52.978;6.310;2023-06-26T15:04:24;23.30;88.40
54429;DHT22;40337;52.978;6.310;2023-06-26T15:06:49;23.20;88.20
54429;DHT22;40337;52.978;6.310;2023-06-26T15:09:15;23.20;88.60
54429;DHT22;40337;52.978;6.310;2023-06-26T15:11:41;23.50;88.80
54429;DHT22;40337;52.978;6.310;2023-06-26T15:14:07;23.40;87.10
54429;DHT22;40337;52.978;6.310;2023-06-26T15:16:33;23.40;87.10
54429;DHT22;40337;52.978;6.310;2023-06-26T15:18:58;23.40;87.00
54429;DHT22;40337;52.978;6.310;2023-06-26T15:21:24;23.80;87.50
54429;DHT22;40337;52.978;6.310;2023-06-26T15:23:50;24.00;85.10
54429;DHT22;40337;52.978;6.310;2023-06-26T15:26:16;24.20;83.40
54429;DHT22;40337;52.978;6.310;2023-06-26T15:28:41;24.40;83.50
54429;DHT22;40337;52.978;6.310;2023-06-26T15:31:07;24.50;82.20
54429;DHT22;40337;52.978;6.310;2023-06-26T15:33:33;24.40;80.70
54429;DHT22;40337;52.978;6.310;2023-06-26T15:35:58;24.30;81.10
54429;DHT22;40337;52.978;6.310;2023-06-26T15:38:24;24.10;81.70
54429;DHT22;40337;52.978;6.310;2023-06-26T15:40:49;24.20;82.90
54429;DHT22;40337;52.978;6.310;2023-06-26T15:43:15;24.10;82.20